sensor_id;sensor_type;location;lat;lon;timestamp;P1;durP1;ratioP1;P2;durP2;ratioP2
3563;SDS011;1796;52.388;13.096;2023-05-07T00:00:34;19.33;;;12.10;;
3563;SDS011;1796;52.388;13.096;2023-05-07T00:03:01;16.90;;;11.70;;
3563;SDS011;1796;52.388;13.096;2023-05-07T00:05:28;15.97;;;11.57;;
3563;SDS011;1796;52.388;13.096;2023-05-07T00:07:56;33.33;;;11.43;;
3563;SDS011;1796;52.388;13.096;2023-05-07T00:10:23;19.00;;;11.20;;
3563;SDS011;1796;52.388;13.096;2023-05-07T00:12:50;12.67;;;10.90;;
3563;SDS011;1796;52.388;13.096;2023-05-07T00:15:17;13.93;;;11.23;;
3563;SDS011;1796;52.388;13.096;2023-05-07T00:17:44;13.83;;;10.60;;
3563;SDS011;1796;52.388;13.096;2023-05-07T00:20:11;12.43;;;11.10;;
3563;SDS011;1796;52.388;13.096;2023-05-07T00:22:38;14.60;;;9.67;;
3563;SDS011;1796;52.388;13.096;2023-05-07T00:25:07;14.67;;;11.30;;
3563;SDS011;1796;52.388;13.096;2023-05-07T00:27:35;14.40;;;10.33;;
3563;SDS011;1796;52.388;13.096;2023-05-07T00:30:02;11.20;;;10.00;;
3563;SDS011;1796;52.388;13.096;2023-05-07T00:32:29;11.97;;;9.90;;
3563;SDS011;1796;52.388;13.096;2023-05-07T00:34:56;10.57;;;8.73;;
3563;SDS011;1796;52.388;13.096;2023-05-07T00:37:23;11.80;;;9.00;;
3563;SDS011;1796;52.388;13.096;2023-05-07T00:39:50;16.93;;;10.13;;
3563;SDS011;1796;52.388;13.096;2023-05-07T00:42:18;12.03;;;9.87;;
3563;SDS011;1796;52.388;13.096;2023-05-07T00:44:45;13.40;;;8.83;;
3563;SDS011;1796;52.388;13.096;2023-05-07T00:47:12;11.10;;;9.83;;
3563;SDS011;1796;52.388;13.096;2023-05-07T00:49:41;10.83;;;9.50;;
3563;SDS011;1796;52.388;13.096;2023-05-07T00:52:09;14.40;;;8.50;;
3563;SDS011;1796;52.388;13.096;2023-05-07T00:54:37;12.33;;;9.80;;
3563;SDS011;1796;52.388;13.096;2023-05-07T00:57:06;14.17;;;10.40;;
3563;SDS011;1796;52.388;13.096;2023-05-07T00:59:35;12.63;;;9.73;;
3563;SDS011;1796;52.388;13.096;2023-05-07T01:02:02;11.67;;;9.33;;
3563;SDS011;1796;52.388;13.096;2023-05-07T01:04:29;12.97;;;10.13;;
3563;SDS011;1796;52.388;13.096;2023-05-07T01:06:56;15.23;;;9.70;;
3563;SDS011;1796;52.388;13.096;2023-05-07T01:09:24;10.57;;;9.47;;
3563;SDS011;1796;52.388;13.096;2023-05-07T01:11:52;10.27;;;9.20;;
3563;SDS011;1796;52.388;13.096;2023-05-07T01:14:20;13.40;;;8.80;;
3563;SDS011;1796;52.388;13.096;2023-05-07T01:16:48;11.17;;;9.27;;
3563;SDS011;1796;52.388;13.096;2023-05-07T01:19:16;11.30;;;8.70;;
3563;SDS011;1796;52.388;13.096;2023-05-07T01:21:46;9.97;;;8.60;;
3563;SDS011;1796;52.388;13.096;2023-05-07T01:24:15;12.27;;;8.97;;
3563;SDS011;1796;52.388;13.096;2023-05-07T01:26:43;10.67;;;8.60;;
3563;SDS011;1796;52.388;13.096;2023-05-07T01:29:10;9.70;;;8.70;;
3563;SDS011;1796;52.388;13.096;2023-05-07T01:31:37;10.90;;;9.23;;
3563;SDS011;1796;52.388;13.096;2023-05-07T01:34:06;10.67;;;8.40;;
3563;SDS011;1796;52.388;13.096;2023-05-07T01:36:35;12.17;;;8.97;;
3563;SDS011;1796;52.388;13.096;2023-05-07T01:39:03;12.10;;;9.10;;
3563;SDS011;1796;52.388;13.096;2023-05-07T01:41:32;11.03;;;8.13;;
3563;SDS011;1796;52.388;13.096;2023-05-07T01:44:00;9.93;;;8.13;;
3563;SDS011;1796;52.388;13.096;2023-05-07T01:46:27;11.70;;;8.03;;
3563;SDS011;1796;52.388;13.096;2023-05-07T01:48:54;12.50;;;8.13;;
3563;SDS011;1796;52.388;13.096;2023-05-07T01:51:21;15.33;;;8.07;;
3563;SDS011;1796;52.388;13.096;2023-05-07T01:53:48;10.63;;;8.40;;
3563;SDS011;1796;52.388;13.096;2023-05-07T01:56:16;9.93;;;8.00;;
3563;SDS011;1796;52.388;13.096;2023-05-07T01:58:45;11.33;;;8.17;;
3563;SDS011;1796;52.388;13.096;2023-05-07T02:01:12;14.27;;;8.70;;
3563;SDS011;1796;52.388;13.096;2023-05-07T02:03:39;8.23;;;7.20;;
3563;SDS011;1796;52.388;13.096;2023-05-07T02:06:06;8.17;;;6.93;;
3563;SDS011;1796;52.388;13.096;2023-05-07T02:08:33;9.93;;;7.70;;
3563;SDS011;1796;52.388;13.096;2023-05-07T02:11:00;11.10;;;7.93;;
3563;SDS011;1796;52.388;13.096;2023-05-07T02:13:28;9.97;;;8.43;;
3563;SDS011;1796;52.388;13.096;2023-05-07T02:15:57;8.60;;;6.90;;
3563;SDS011;1796;52.388;13.096;2023-05-07T02:18:24;10.60;;;6.90;;
3563;SDS011;1796;52.388;13.096;2023-05-07T02:20:51;8.13;;;7.33;;
3563;SDS011;1796;52.388;13.096;2023-05-07T02:23:18;7.60;;;6.90;;
3563;SDS011;1796;52.388;13.096;2023-05-07T02:25:45;8.30;;;7.40;;
3563;SDS011;1796;52.388;13.096;2023-05-07T02:28:12;7.77;;;6.97;;
3563;SDS011;1796;52.388;13.096;2023-05-07T02:30:39;9.30;;;7.80;;
3563;SDS011;1796;52.388;13.096;2023-05-07T02:33:07;7.80;;;7.03;;
3563;SDS011;1796;52.388;13.096;2023-05-07T02:35:34;9.47;;;6.83;;
3563;SDS011;1796;52.388;13.096;2023-05-07T02:38:01;7.60;;;6.57;;
3563;SDS011;1796;52.388;13.096;2023-05-07T02:40:28;8.07;;;7.27;;
3563;SDS011;1796;52.388;13.096;2023-05-07T02:42:58;9.03;;;6.70;;
3563;SDS011;1796;52.388;13.096;2023-05-07T02:45:25;8.50;;;6.97;;
3563;SDS011;1796;52.388;13.096;2023-05-07T02:47:52;10.23;;;6.50;;
3563;SDS011;1796;52.388;13.096;2023-05-07T02:50:20;8.47;;;7.10;;
3563;SDS011;1796;52.388;13.096;2023-05-07T02:52:47;8.97;;;6.60;;
3563;SDS011;1796;52.388;13.096;2023-05-07T02:55:14;7.10;;;6.40;;
3563;SDS011;1796;52.388;13.096;2023-05-07T02:57:41;7.47;;;6.77;;
3563;SDS011;1796;52.388;13.096;2023-05-07T03:00:12;9.37;;;7.00;;
3563;SDS011;1796;52.388;13.096;2023-05-07T03:02:39;8.50;;;6.57;;
3563;SDS011;1796;52.388;13.096;2023-05-07T03:05:06;7.50;;;6.80;;
3563;SDS011;1796;52.388;13.096;2023-05-07T03:07:35;7.77;;;6.97;;
3563;SDS011;1796;52.388;13.096;2023-05-07T03:10:03;10.13;;;6.57;;
3563;SDS011;1796;52.388;13.096;2023-05-07T03:12:30;7.30;;;6.60;;
3563;SDS011;1796;52.388;13.096;2023-05-07T03:14:57;8.57;;;6.03;;
3563;SDS011;1796;52.388;13.096;2023-05-07T03:17:24;7.63;;;5.90;;
3563;SDS011;1796;52.388;13.096;2023-05-07T03:19:51;6.90;;;6.23;;
3563;SDS011;1796;52.388;13.096;2023-05-07T03:22:17;13.40;;;6.30;;
3563;SDS011;1796;52.388;13.096;2023-05-07T03:24:46;7.97;;;7.07;;
3563;SDS011;1796;52.388;13.096;2023-05-07T03:27:12;8.17;;;7.30;;
3563;SDS011;1796;52.388;13.096;2023-05-07T03:29:39;8.77;;;6.77;;
3563;SDS011;1796;52.388;13.096;2023-05-07T03:32:06;11.73;;;7.50;;
3563;SDS011;1796;52.388;13.096;2023-05-07T03:34:33;9.03;;;7.60;;
3563;SDS011;1796;52.388;13.096;2023-05-07T03:37:00;8.00;;;6.93;;
3563;SDS011;1796;52.388;13.096;2023-05-07T03:39:26;8.17;;;6.80;;
3563;SDS011;1796;52.388;13.096;2023-05-07T03:41:55;7.90;;;7.00;;
3563;SDS011;1796;52.388;13.096;2023-05-07T03:44:21;10.63;;;6.87;;
3563;SDS011;1796;52.388;13.096;2023-05-07T03:46:48;11.60;;;7.60;;
3563;SDS011;1796;52.388;13.096;2023-05-07T03:49:15;23.70;;;8.10;;
3563;SDS011;1796;52.388;13.096;2023-05-07T03:51:42;8.70;;;6.70;;
3563;SDS011;1796;52.388;13.096;2023-05-07T03:54:09;18.60;;;7.60;;
3563;SDS011;1796;52.388;13.096;2023-05-07T03:56:36;10.10;;;7.57;;
3563;SDS011;1796;52.388;13.096;2023-05-07T03:59:04;8.20;;;7.00;;
3563;SDS011;1796;52.388;13.096;2023-05-07T04:01:31;7.40;;;6.50;;
3563;SDS011;1796;52.388;13.096;2023-05-07T04:03:58;7.87;;;6.53;;
3563;SDS011;1796;52.388;13.096;2023-05-07T04:06:24;17.77;;;7.80;;
3563;SDS011;1796;52.388;13.096;2023-05-07T04:08:52;8.97;;;7.03;;
3563;SDS011;1796;52.388;13.096;2023-05-07T04:11:19;13.30;;;6.87;;
3563;SDS011;1796;52.388;13.096;2023-05-07T04:13:46;8.20;;;7.40;;
3563;SDS011;1796;52.388;13.096;2023-05-07T04:16:14;9.27;;;8.20;;
3563;SDS011;1796;52.388;13.096;2023-05-07T04:18:41;19.07;;;7.77;;
3563;SDS011;1796;52.388;13.096;2023-05-07T04:21:13;8.23;;;7.40;;
3563;SDS011;1796;52.388;13.096;2023-05-07T04:23:41;10.20;;;7.77;;
3563;SDS011;1796;52.388;13.096;2023-05-07T04:26:08;15.93;;;7.40;;
3563;SDS011;1796;52.388;13.096;2023-05-07T04:28:35;10.00;;;7.63;;
3563;SDS011;1796;52.388;13.096;2023-05-07T04:31:02;7.27;;;6.50;;
3563;SDS011;1796;52.388;13.096;2023-05-07T04:33:30;9.50;;;7.10;;
3563;SDS011;1796;52.388;13.096;2023-05-07T04:35:57;12.40;;;6.60;;
3563;SDS011;1796;52.388;13.096;2023-05-07T04:38:27;11.20;;;6.90;;
3563;SDS011;1796;52.388;13.096;2023-05-07T04:40:54;8.77;;;7.73;;
3563;SDS011;1796;52.388;13.096;2023-05-07T04:43:22;8.00;;;7.20;;
3563;SDS011;1796;52.388;13.096;2023-05-07T04:45:49;11.63;;;7.73;;
3563;SDS011;1796;52.388;13.096;2023-05-07T04:48:16;8.90;;;7.83;;
3563;SDS011;1796;52.388;13.096;2023-05-07T04:50:45;6.97;;;6.37;;
3563;SDS011;1796;52.388;13.096;2023-05-07T04:53:14;9.00;;;6.40;;
3563;SDS011;1796;52.388;13.096;2023-05-07T04:55:41;9.50;;;7.50;;
3563;SDS011;1796;52.388;13.096;2023-05-07T04:58:08;8.57;;;6.70;;
3563;SDS011;1796;52.388;13.096;2023-05-07T05:00:35;6.90;;;6.30;;
3563;SDS011;1796;52.388;13.096;2023-05-07T05:03:03;9.63;;;6.63;;
3563;SDS011;1796;52.388;13.096;2023-05-07T05:05:30;9.60;;;7.63;;
3563;SDS011;1796;52.388;13.096;2023-05-07T05:07:59;8.70;;;6.87;;
3563;SDS011;1796;52.388;13.096;2023-05-07T05:10:25;7.27;;;6.57;;
3563;SDS011;1796;52.388;13.096;2023-05-07T05:12:52;8.93;;;8.03;;
3563;SDS011;1796;52.388;13.096;2023-05-07T05:15:19;7.57;;;6.77;;
3563;SDS011;1796;52.388;13.096;2023-05-07T05:17:46;7.13;;;6.43;;
3563;SDS011;1796;52.388;13.096;2023-05-07T05:20:13;9.17;;;7.40;;
3563;SDS011;1796;52.388;13.096;2023-05-07T05:22:40;6.70;;;5.97;;
3563;SDS011;1796;52.388;13.096;2023-05-07T05:25:09;9.33;;;6.90;;
3563;SDS011;1796;52.388;13.096;2023-05-07T05:27:36;7.77;;;6.70;;
3563;SDS011;1796;52.388;13.096;2023-05-07T05:30:03;9.27;;;6.50;;
3563;SDS011;1796;52.388;13.096;2023-05-07T05:32:31;6.20;;;5.60;;
3563;SDS011;1796;52.388;13.096;2023-05-07T05:34:57;6.90;;;6.23;;
3563;SDS011;1796;52.388;13.096;2023-05-07T05:37:25;10.43;;;6.77;;
3563;SDS011;1796;52.388;13.096;2023-05-07T05:39:51;8.70;;;6.37;;
3563;SDS011;1796;52.388;13.096;2023-05-07T05:42:21;7.03;;;6.33;;
3563;SDS011;1796;52.388;13.096;2023-05-07T05:44:48;6.60;;;5.90;;
3563;SDS011;1796;52.388;13.096;2023-05-07T05:47:14;8.40;;;6.37;;
3563;SDS011;1796;52.388;13.096;2023-05-07T05:49:41;7.67;;;6.87;;
3563;SDS011;1796;52.388;13.096;2023-05-07T05:52:09;9.00;;;6.30;;
3563;SDS011;1796;52.388;13.096;2023-05-07T05:54:38;7.50;;;6.87;;
3563;SDS011;1796;52.388;13.096;2023-05-07T05:57:05;6.03;;;5.53;;
3563;SDS011;1796;52.388;13.096;2023-05-07T05:59:34;6.63;;;6.03;;
3563;SDS011;1796;52.388;13.096;2023-05-07T06:02:00;8.30;;;5.90;;
3563;SDS011;1796;52.388;13.096;2023-05-07T06:04:27;6.80;;;5.83;;
3563;SDS011;1796;52.388;13.096;2023-05-07T06:06:54;9.00;;;6.30;;
3563;SDS011;1796;52.388;13.096;2023-05-07T06:09:21;6.60;;;5.47;;
3563;SDS011;1796;52.388;13.096;2023-05-07T06:11:48;8.90;;;5.43;;
3563;SDS011;1796;52.388;13.096;2023-05-07T06:14:15;6.17;;;5.60;;
3563;SDS011;1796;52.388;13.096;2023-05-07T06:16:43;7.60;;;6.03;;
3563;SDS011;1796;52.388;13.096;2023-05-07T06:19:10;7.23;;;5.70;;
3563;SDS011;1796;52.388;13.096;2023-05-07T06:21:38;8.73;;;6.03;;
3563;SDS011;1796;52.388;13.096;2023-05-07T06:24:05;5.93;;;5.43;;
3563;SDS011;1796;52.388;13.096;2023-05-07T06:26:32;5.93;;;5.33;;
3563;SDS011;1796;52.388;13.096;2023-05-07T06:28:59;7.50;;;5.13;;
3563;SDS011;1796;52.388;13.096;2023-05-07T06:31:29;6.50;;;5.10;;
3563;SDS011;1796;52.388;13.096;2023-05-07T06:33:58;9.93;;;5.50;;
3563;SDS011;1796;52.388;13.096;2023-05-07T06:36:25;4.37;;;4.07;;
3563;SDS011;1796;52.388;13.096;2023-05-07T06:38:52;5.60;;;4.90;;
3563;SDS011;1796;52.388;13.096;2023-05-07T07:02:36;6.13;;;4.50;;
3563;SDS011;1796;52.388;13.096;2023-05-07T07:05:03;5.47;;;4.50;;
3563;SDS011;1796;52.388;13.096;2023-05-07T07:07:30;4.90;;;4.50;;
3563;SDS011;1796;52.388;13.096;2023-05-07T07:09:57;5.53;;;4.20;;
3563;SDS011;1796;52.388;13.096;2023-05-07T07:12:24;3.90;;;3.60;;
3563;SDS011;1796;52.388;13.096;2023-05-07T07:14:51;4.10;;;3.80;;
3563;SDS011;1796;52.388;13.096;2023-05-07T07:17:18;4.03;;;3.70;;
3563;SDS011;1796;52.388;13.096;2023-05-07T07:19:46;4.27;;;3.90;;
3563;SDS011;1796;52.388;13.096;2023-05-07T07:22:13;3.83;;;3.53;;
3563;SDS011;1796;52.388;13.096;2023-05-07T07:24:40;4.60;;;4.20;;
3563;SDS011;1796;52.388;13.096;2023-05-07T07:27:07;7.73;;;4.20;;
3563;SDS011;1796;52.388;13.096;2023-05-07T07:29:33;6.63;;;3.70;;
3563;SDS011;1796;52.388;13.096;2023-05-07T07:32:00;7.50;;;4.30;;
3563;SDS011;1796;52.388;13.096;2023-05-07T07:34:27;5.73;;;4.63;;
3563;SDS011;1796;52.388;13.096;2023-05-07T07:36:56;4.57;;;4.20;;
3563;SDS011;1796;52.388;13.096;2023-05-07T07:39:23;5.20;;;4.33;;
3563;SDS011;1796;52.388;13.096;2023-05-07T07:41:50;4.53;;;4.23;;
3563;SDS011;1796;52.388;13.096;2023-05-07T07:44:17;5.80;;;4.50;;
3563;SDS011;1796;52.388;13.096;2023-05-07T07:46:44;7.47;;;4.27;;
3563;SDS011;1796;52.388;13.096;2023-05-07T07:49:11;5.27;;;4.50;;
3563;SDS011;1796;52.388;13.096;2023-05-07T07:51:37;4.53;;;4.13;;
3563;SDS011;1796;52.388;13.096;2023-05-07T07:54:06;4.27;;;3.93;;
3563;SDS011;1796;52.388;13.096;2023-05-07T07:56:33;4.80;;;4.40;;
3563;SDS011;1796;52.388;13.096;2023-05-07T07:59:00;4.57;;;3.90;;
3563;SDS011;1796;52.388;13.096;2023-05-07T08:01:29;5.23;;;3.77;;
3563;SDS011;1796;52.388;13.096;2023-05-07T08:03:56;5.90;;;4.60;;
3563;SDS011;1796;52.388;13.096;2023-05-07T08:06:24;4.07;;;3.67;;
3563;SDS011;1796;52.388;13.096;2023-05-07T08:08:51;5.57;;;4.20;;
3563;SDS011;1796;52.388;13.096;2023-05-07T08:11:20;5.80;;;4.17;;
3563;SDS011;1796;52.388;13.096;2023-05-07T08:13:47;4.00;;;3.27;;
3563;SDS011;1796;52.388;13.096;2023-05-07T08:16:14;6.93;;;4.43;;
3563;SDS011;1796;52.388;13.096;2023-05-07T08:18:41;3.50;;;3.20;;
3563;SDS011;1796;52.388;13.096;2023-05-07T08:21:08;3.40;;;3.17;;
3563;SDS011;1796;52.388;13.096;2023-05-07T08:23:35;6.80;;;3.40;;
3563;SDS011;1796;52.388;13.096;2023-05-07T08:26:01;5.10;;;3.13;;
3563;SDS011;1796;52.388;13.096;2023-05-07T08:28:30;4.63;;;3.40;;
3563;SDS011;1796;52.388;13.096;2023-05-07T08:30:56;4.67;;;4.27;;
3563;SDS011;1796;52.388;13.096;2023-05-07T08:33:25;4.20;;;3.43;;
3563;SDS011;1796;52.388;13.096;2023-05-07T08:35:52;3.37;;;3.07;;
3563;SDS011;1796;52.388;13.096;2023-05-07T08:38:19;3.33;;;3.13;;
3563;SDS011;1796;52.388;13.096;2023-05-07T08:40:46;8.13;;;3.27;;
3563;SDS011;1796;52.388;13.096;2023-05-07T08:43:14;3.33;;;3.07;;
3563;SDS011;1796;52.388;13.096;2023-05-07T08:45:42;3.63;;;3.33;;
3563;SDS011;1796;52.388;13.096;2023-05-07T08:48:14;6.50;;;3.73;;
3563;SDS011;1796;52.388;13.096;2023-05-07T08:50:42;3.77;;;3.50;;
3563;SDS011;1796;52.388;13.096;2023-05-07T08:53:09;3.40;;;3.10;;
3563;SDS011;1796;52.388;13.096;2023-05-07T08:55:36;3.63;;;3.30;;
3563;SDS011;1796;52.388;13.096;2023-05-07T08:58:03;3.40;;;3.10;;
3563;SDS011;1796;52.388;13.096;2023-05-07T09:00:30;3.00;;;2.73;;
3563;SDS011;1796;52.388;13.096;2023-05-07T09:02:59;3.53;;;2.87;;
3563;SDS011;1796;52.388;13.096;2023-05-07T09:05:26;4.00;;;3.00;;
3563;SDS011;1796;52.388;13.096;2023-05-07T09:07:53;4.83;;;3.20;;
3563;SDS011;1796;52.388;13.096;2023-05-07T09:10:21;4.00;;;3.13;;
3563;SDS011;1796;52.388;13.096;2023-05-07T09:12:48;2.93;;;2.73;;
3563;SDS011;1796;52.388;13.096;2023-05-07T09:15:15;5.73;;;2.80;;
3563;SDS011;1796;52.388;13.096;2023-05-07T09:17:42;3.83;;;2.77;;
3563;SDS011;1796;52.388;13.096;2023-05-07T09:20:11;2.93;;;2.70;;
3563;SDS011;1796;52.388;13.096;2023-05-07T09:22:38;2.63;;;2.30;;
3563;SDS011;1796;52.388;13.096;2023-05-07T09:25:06;2.70;;;2.60;;
3563;SDS011;1796;52.388;13.096;2023-05-07T09:27:34;2.97;;;2.67;;
3563;SDS011;1796;52.388;13.096;2023-05-07T09:30:02;2.83;;;2.60;;
3563;SDS011;1796;52.388;13.096;2023-05-07T09:32:33;2.53;;;2.43;;
3563;SDS011;1796;52.388;13.096;2023-05-07T09:35:01;4.37;;;2.43;;
3563;SDS011;1796;52.388;13.096;2023-05-07T09:37:30;4.50;;;2.57;;
3563;SDS011;1796;52.388;13.096;2023-05-07T09:39:57;2.93;;;2.67;;
3563;SDS011;1796;52.388;13.096;2023-05-07T09:42:24;3.43;;;2.80;;
3563;SDS011;1796;52.388;13.096;2023-05-07T09:44:52;2.97;;;2.40;;
3563;SDS011;1796;52.388;13.096;2023-05-07T09:47:19;3.00;;;2.80;;
3563;SDS011;1796;52.388;13.096;2023-05-07T09:49:49;4.30;;;2.67;;
3563;SDS011;1796;52.388;13.096;2023-05-07T09:52:20;2.87;;;2.57;;
3563;SDS011;1796;52.388;13.096;2023-05-07T09:54:49;17.50;;;2.80;;
3563;SDS011;1796;52.388;13.096;2023-05-07T09:57:18;13.83;;;2.60;;
3563;SDS011;1796;52.388;13.096;2023-05-07T09:59:46;3.00;;;2.20;;
3563;SDS011;1796;52.388;13.096;2023-05-07T10:02:15;2.27;;;2.17;;
3563;SDS011;1796;52.388;13.096;2023-05-07T10:04:43;2.17;;;2.03;;
3563;SDS011;1796;52.388;13.096;2023-05-07T10:15:45;4.40;;;2.20;;
3563;SDS011;1796;52.388;13.096;2023-05-07T10:18:13;4.00;;;2.20;;
3563;SDS011;1796;52.388;13.096;2023-05-07T10:20:41;2.53;;;2.30;;
3563;SDS011;1796;52.388;13.096;2023-05-07T10:26:28;2.33;;;2.20;;
3563;SDS011;1796;52.388;13.096;2023-05-07T10:28:58;5.13;;;2.20;;
3563;SDS011;1796;52.388;13.096;2023-05-07T10:31:41;2.80;;;2.33;;
3563;SDS011;1796;52.388;13.096;2023-05-07T10:34:18;3.03;;;2.60;;
3563;SDS011;1796;52.388;13.096;2023-05-07T10:36:48;2.30;;;2.17;;
3563;SDS011;1796;52.388;13.096;2023-05-07T10:39:15;2.60;;;2.40;;
3563;SDS011;1796;52.388;13.096;2023-05-07T10:41:42;2.53;;;2.33;;
3563;SDS011;1796;52.388;13.096;2023-05-07T10:44:09;3.53;;;2.20;;
3563;SDS011;1796;52.388;13.096;2023-05-07T10:46:36;3.97;;;1.80;;
3563;SDS011;1796;52.388;13.096;2023-05-07T10:49:08;1.83;;;1.73;;
3563;SDS011;1796;52.388;13.096;2023-05-07T10:51:38;2.40;;;2.30;;
3563;SDS011;1796;52.388;13.096;2023-05-07T10:54:21;2.30;;;2.20;;
3563;SDS011;1796;52.388;13.096;2023-05-07T10:56:49;2.80;;;2.63;;
3563;SDS011;1796;52.388;13.096;2023-05-07T10:59:29;2.77;;;2.50;;
3563;SDS011;1796;52.388;13.096;2023-05-07T11:02:05;2.43;;;2.27;;
3563;SDS011;1796;52.388;13.096;2023-05-07T11:04:36;5.90;;;3.27;;
3563;SDS011;1796;52.388;13.096;2023-05-07T11:10:04;2.07;;;1.97;;
3563;SDS011;1796;52.388;13.096;2023-05-07T11:12:52;2.50;;;2.30;;
3563;SDS011;1796;52.388;13.096;2023-05-07T11:15:41;4.00;;;1.93;;
3563;SDS011;1796;52.388;13.096;2023-05-07T11:18:09;2.20;;;1.90;;
3563;SDS011;1796;52.388;13.096;2023-05-07T11:20:48;1.80;;;1.70;;
3563;SDS011;1796;52.388;13.096;2023-05-07T11:26:24;2.10;;;2.00;;
3563;SDS011;1796;52.388;13.096;2023-05-07T11:28:51;2.33;;;2.20;;
3563;SDS011;1796;52.388;13.096;2023-05-07T11:31:23;2.40;;;2.30;;
3563;SDS011;1796;52.388;13.096;2023-05-07T11:33:51;3.03;;;2.63;;
3563;SDS011;1796;52.388;13.096;2023-05-07T11:36:20;4.87;;;2.10;;
3563;SDS011;1796;52.388;13.096;2023-05-07T11:38:48;5.20;;;3.20;;
3563;SDS011;1796;52.388;13.096;2023-05-07T11:41:16;2.40;;;2.30;;
3563;SDS011;1796;52.388;13.096;2023-05-07T11:43:57;2.50;;;2.40;;
3563;SDS011;1796;52.388;13.096;2023-05-07T11:46:26;2.30;;;2.30;;
3563;SDS011;1796;52.388;13.096;2023-05-07T11:48:54;2.30;;;2.10;;
3563;SDS011;1796;52.388;13.096;2023-05-07T11:51:23;2.23;;;2.13;;
3563;SDS011;1796;52.388;13.096;2023-05-07T11:53:51;4.70;;;1.97;;
3563;SDS011;1796;52.388;13.096;2023-05-07T11:56:19;2.90;;;2.30;;
3563;SDS011;1796;52.388;13.096;2023-05-07T11:58:46;2.10;;;1.90;;
3563;SDS011;1796;52.388;13.096;2023-05-07T12:01:14;1.77;;;1.67;;
3563;SDS011;1796;52.388;13.096;2023-05-07T12:03:43;1.77;;;1.77;;
3563;SDS011;1796;52.388;13.096;2023-05-07T12:06:12;4.43;;;2.13;;
3563;SDS011;1796;52.388;13.096;2023-05-07T12:08:42;2.53;;;2.40;;
3563;SDS011;1796;52.388;13.096;2023-05-07T12:11:12;6.30;;;2.07;;
3563;SDS011;1796;52.388;13.096;2023-05-07T12:13:41;3.47;;;2.20;;
3563;SDS011;1796;52.388;13.096;2023-05-07T12:16:08;3.43;;;2.60;;
3563;SDS011;1796;52.388;13.096;2023-05-07T12:18:36;2.60;;;1.90;;
3563;SDS011;1796;52.388;13.096;2023-05-07T12:21:04;1.90;;;1.80;;
3563;SDS011;1796;52.388;13.096;2023-05-07T12:23:32;1.43;;;1.43;;
3563;SDS011;1796;52.388;13.096;2023-05-07T12:26:01;2.00;;;1.90;;
3563;SDS011;1796;52.388;13.096;2023-05-07T12:28:28;3.00;;;1.90;;
3563;SDS011;1796;52.388;13.096;2023-05-07T12:30:56;2.10;;;2.00;;
3563;SDS011;1796;52.388;13.096;2023-05-07T12:33:24;1.80;;;1.80;;
3563;SDS011;1796;52.388;13.096;2023-05-07T12:35:53;1.90;;;1.80;;
3563;SDS011;1796;52.388;13.096;2023-05-07T12:38:21;1.73;;;1.63;;
3563;SDS011;1796;52.388;13.096;2023-05-07T12:40:49;5.70;;;2.10;;
3563;SDS011;1796;52.388;13.096;2023-05-07T12:43:18;9.43;;;2.20;;
3563;SDS011;1796;52.388;13.096;2023-05-07T12:45:46;1.93;;;1.83;;
3563;SDS011;1796;52.388;13.096;2023-05-07T12:48:15;1.67;;;1.67;;
3563;SDS011;1796;52.388;13.096;2023-05-07T12:50:42;2.77;;;2.03;;
3563;SDS011;1796;52.388;13.096;2023-05-07T12:53:10;2.20;;;2.10;;
3563;SDS011;1796;52.388;13.096;2023-05-07T12:55:41;1.80;;;1.80;;
3563;SDS011;1796;52.388;13.096;2023-05-07T12:58:13;2.00;;;1.90;;
3563;SDS011;1796;52.388;13.096;2023-05-07T13:00:47;1.77;;;1.67;;
3563;SDS011;1796;52.388;13.096;2023-05-07T13:03:20;2.33;;;2.10;;
3563;SDS011;1796;52.388;13.096;2023-05-07T13:05:49;2.23;;;2.07;;
3563;SDS011;1796;52.388;13.096;2023-05-07T13:08:29;1.97;;;1.87;;
3563;SDS011;1796;52.388;13.096;2023-05-07T13:10:57;1.77;;;1.67;;
3563;SDS011;1796;52.388;13.096;2023-05-07T13:13:30;2.10;;;2.00;;
3563;SDS011;1796;52.388;13.096;2023-05-07T13:15:57;5.20;;;2.20;;
3563;SDS011;1796;52.388;13.096;2023-05-07T13:18:24;3.23;;;1.80;;
3563;SDS011;1796;52.388;13.096;2023-05-07T13:20:52;2.23;;;2.03;;
3563;SDS011;1796;52.388;13.096;2023-05-07T13:23:19;9.83;;;2.07;;
3563;SDS011;1796;52.388;13.096;2023-05-07T13:25:46;2.30;;;2.10;;
3563;SDS011;1796;52.388;13.096;2023-05-07T13:28:13;2.27;;;2.07;;
3563;SDS011;1796;52.388;13.096;2023-05-07T13:30:42;7.93;;;1.60;;
3563;SDS011;1796;52.388;13.096;2023-05-07T13:33:09;1.90;;;1.80;;
3563;SDS011;1796;52.388;13.096;2023-05-07T13:35:36;1.60;;;1.50;;
3563;SDS011;1796;52.388;13.096;2023-05-07T13:38:03;1.83;;;1.73;;
3563;SDS011;1796;52.388;13.096;2023-05-07T13:40:30;1.87;;;1.70;;
3563;SDS011;1796;52.388;13.096;2023-05-07T13:42:57;1.57;;;1.47;;
3563;SDS011;1796;52.388;13.096;2023-05-07T13:45:26;1.67;;;1.50;;
3563;SDS011;1796;52.388;13.096;2023-05-07T13:47:56;2.67;;;1.80;;
3563;SDS011;1796;52.388;13.096;2023-05-07T13:50:23;1.93;;;1.83;;
3563;SDS011;1796;52.388;13.096;2023-05-07T13:52:51;4.33;;;1.80;;
3563;SDS011;1796;52.388;13.096;2023-05-07T13:55:19;1.93;;;1.50;;
3563;SDS011;1796;52.388;13.096;2023-05-07T13:57:47;2.07;;;1.97;;
3563;SDS011;1796;52.388;13.096;2023-05-07T14:00:20;1.63;;;1.53;;
3563;SDS011;1796;52.388;13.096;2023-05-07T14:02:47;5.70;;;1.80;;
3563;SDS011;1796;52.388;13.096;2023-05-07T14:05:15;2.93;;;1.57;;
3563;SDS011;1796;52.388;13.096;2023-05-07T14:07:42;1.83;;;1.73;;
3563;SDS011;1796;52.388;13.096;2023-05-07T14:10:09;1.83;;;1.73;;
3563;SDS011;1796;52.388;13.096;2023-05-07T14:12:38;1.73;;;1.63;;
3563;SDS011;1796;52.388;13.096;2023-05-07T14:15:05;1.93;;;1.83;;
3563;SDS011;1796;52.388;13.096;2023-05-07T14:17:33;1.73;;;1.63;;
3563;SDS011;1796;52.388;13.096;2023-05-07T14:20:00;1.77;;;1.67;;
3563;SDS011;1796;52.388;13.096;2023-05-07T14:22:28;1.80;;;1.70;;
3563;SDS011;1796;52.388;13.096;2023-05-07T14:24:55;1.80;;;1.50;;
3563;SDS011;1796;52.388;13.096;2023-05-07T14:27:22;1.93;;;1.63;;
3563;SDS011;1796;52.388;13.096;2023-05-07T14:29:49;1.70;;;1.60;;
3563;SDS011;1796;52.388;13.096;2023-05-07T14:32:16;1.70;;;1.70;;
3563;SDS011;1796;52.388;13.096;2023-05-07T14:34:44;2.00;;;1.90;;
3563;SDS011;1796;52.388;13.096;2023-05-07T14:37:11;1.73;;;1.70;;
3563;SDS011;1796;52.388;13.096;2023-05-07T14:39:39;2.37;;;2.17;;
3563;SDS011;1796;52.388;13.096;2023-05-07T14:42:06;1.90;;;1.80;;
3563;SDS011;1796;52.388;13.096;2023-05-07T14:44:33;2.10;;;2.00;;
3563;SDS011;1796;52.388;13.096;2023-05-07T14:47:00;1.90;;;1.80;;
3563;SDS011;1796;52.388;13.096;2023-05-07T14:49:27;2.20;;;2.00;;
3563;SDS011;1796;52.388;13.096;2023-05-07T14:51:56;2.53;;;2.33;;
3563;SDS011;1796;52.388;13.096;2023-05-07T15:00:55;1.83;;;1.70;;
3563;SDS011;1796;52.388;13.096;2023-05-07T15:03:22;1.80;;;1.70;;
3563;SDS011;1796;52.388;13.096;2023-05-07T15:05:49;2.33;;;2.07;;
3563;SDS011;1796;52.388;13.096;2023-05-07T15:08:16;1.83;;;1.73;;
3563;SDS011;1796;52.388;13.096;2023-05-07T15:10:43;2.20;;;1.90;;
3563;SDS011;1796;52.388;13.096;2023-05-07T15:13:11;1.80;;;1.70;;
3563;SDS011;1796;52.388;13.096;2023-05-07T15:15:38;2.30;;;1.70;;
3563;SDS011;1796;52.388;13.096;2023-05-07T15:18:07;1.67;;;1.67;;
3563;SDS011;1796;52.388;13.096;2023-05-07T15:20:34;1.33;;;1.30;;
3563;SDS011;1796;52.388;13.096;2023-05-07T15:23:01;2.30;;;1.50;;
3563;SDS011;1796;52.388;13.096;2023-05-07T15:25:30;1.70;;;1.70;;
3563;SDS011;1796;52.388;13.096;2023-05-07T15:27:58;2.20;;;1.50;;
3563;SDS011;1796;52.388;13.096;2023-05-07T15:30:25;7.50;;;1.87;;
3563;SDS011;1796;52.388;13.096;2023-05-07T15:32:52;2.17;;;1.80;;
3563;SDS011;1796;52.388;13.096;2023-05-07T15:35:20;3.23;;;1.97;;
3563;SDS011;1796;52.388;13.096;2023-05-07T15:37:48;2.00;;;1.90;;
3563;SDS011;1796;52.388;13.096;2023-05-07T15:40:15;2.00;;;1.93;;
3563;SDS011;1796;52.388;13.096;2023-05-07T15:42:45;4.70;;;1.60;;
3563;SDS011;1796;52.388;13.096;2023-05-07T15:45:12;1.60;;;1.47;;
3563;SDS011;1796;52.388;13.096;2023-05-07T15:47:39;2.60;;;1.50;;